ePrivacy and GPDR Cookie Consent by Cookie Consent
EmailTwitter


Surface observations / United Kingdom / EGLL (03772)

Regions: Quebec | Canada | USA | Europe | France | UK | Elsewhere
Station
Display
Info & Location for EGLL (03772) | Help decoding METAR

Weather Conditions observed on 2021/07/28 at 20:50 UTC at LONDON/HEATHROW, UK (EGLL)

Temperature: 15.0 Celsius.

Dewpoint: 12.0 Celsius.

Relative Humidity: 82%

Winds: Southwest at 19 km/h or 10 knots.

Mean Sea level Pressure: 100.80 kilopascals.

Horizontal visibility: 6.21 statute miles or 9.94 kilometers.

Coded METAR:

EGLL 282050Z AUTO 24010KT 9999 //////CB 15/12 Q1008 NOSIG=